Terminal Aerodrome Forecast
Issued by NWS

Home | Current Version | Previous Version | Text Only | Print | Product List | Glossary On
Versions: 1 2 3 4 5 6 7 8 9 10 11 12 13 14 15 16 17 18 19 20 21 22 23 24 25 26 27 28
000
FTUS45 KPSR 301700
TAFIWA
TAF
KIWA 301738Z 3018/3118 13008KT P6SM FEW250
     FM302000 25007KT P6SM FEW250
     FM310000 30005KT P6SM FEW250
     FM310600 14007KT P6SM FEW250=

USA.gov is the U.S. government's official web portal to all federal, state and local government web resources and services.